createdAt,value
2023-04-24T00:01:03.219Z,0.63
2023-04-24T00:03:30.322Z,0.65
2023-04-24T00:05:57.221Z,0.68
2023-04-24T00:08:24.789Z,0.57
2023-04-24T00:10:53.061Z,0.75
2023-04-24T00:13:19.916Z,0.70
2023-04-24T00:15:46.584Z,0.60
2023-04-24T00:18:13.203Z,0.60
2023-04-24T00:20:40.583Z,0.70
2023-04-24T00:23:07.530Z,0.55
2023-04-24T00:25:34.131Z,0.70
2023-04-24T00:28:00.948Z,0.52
2023-04-24T00:30:27.773Z,0.80
2023-04-24T00:32:54.384Z,0.65
2023-04-24T00:35:21.105Z,0.55
2023-04-24T00:37:47.820Z,0.40
2023-04-24T00:40:14.563Z,0.40
2023-04-24T00:42:41.937Z,0.70
2023-04-24T00:45:08.858Z,0.50
2023-04-24T00:47:35.609Z,0.80
2023-04-24T00:50:04.171Z,0.95
2023-04-24T00:52:33.121Z,0.55
2023-04-24T00:54:59.879Z,0.40
2023-04-24T00:57:27.075Z,0.45
2023-04-24T00:59:54.367Z,0.55
2023-04-24T01:02:22.213Z,0.47
2023-04-24T01:04:50.516Z,0.47
2023-04-24T01:07:19.125Z,0.30
2023-04-24T01:09:49.120Z,0.35
2023-04-24T01:12:16.287Z,0.30
2023-04-24T01:14:43.620Z,0.22
2023-04-24T01:17:10.219Z,0.50
2023-04-24T01:19:37.935Z,0.50
2023-04-24T01:22:09.274Z,0.30
2023-04-24T01:24:35.876Z,0.30
2023-04-24T01:27:02.491Z,0.30
2023-04-24T01:29:29.188Z,0.47
2023-04-24T01:31:56.412Z,0.40
2023-04-24T01:34:23.024Z,0.30
2023-04-24T01:36:49.964Z,0.20
2023-04-24T01:39:17.464Z,0.40
2023-04-24T01:41:44.103Z,0.28
2023-04-24T01:44:10.735Z,0.30
2023-04-24T01:46:37.428Z,0.40
2023-04-24T01:49:04.022Z,0.30
2023-04-24T01:51:31.060Z,0.30
2023-04-24T01:53:57.797Z,0.30
2023-04-24T01:56:25.392Z,0.30
2023-04-24T01:58:54.565Z,0.30
2023-04-24T02:01:21.913Z,0.28
2023-04-24T02:03:48.785Z,0.30
2023-04-24T02:06:15.480Z,0.40
2023-04-24T02:08:42.377Z,0.20
2023-04-24T02:11:11.889Z,0.20
2023-04-24T02:13:38.585Z,0.20
2023-04-24T02:16:05.326Z,0.30
2023-04-24T02:18:31.945Z,0.30
2023-04-24T02:20:58.553Z,0.30
2023-04-24T02:23:25.228Z,0.50
2023-04-24T02:25:54.073Z,0.40
2023-04-24T02:28:20.824Z,0.55
2023-04-24T02:30:47.349Z,0.22
2023-04-24T02:33:14.211Z,0.30
2023-04-24T02:35:40.813Z,0.13
2023-04-24T02:38:07.391Z,0.30
2023-04-24T02:40:34.015Z,0.25
2023-04-24T02:43:00.575Z,0.22
2023-04-24T02:45:27.195Z,0.20
2023-04-24T02:47:53.755Z,0.30
2023-04-24T02:50:20.306Z,0.40
2023-04-24T02:52:46.918Z,0.17
2023-04-24T02:55:13.647Z,0.28
2023-04-24T02:57:40.275Z,0.15
2023-04-24T03:00:08.204Z,0.40
2023-04-24T03:02:35.064Z,0.30
2023-04-24T03:05:03.168Z,0.30
2023-04-24T03:07:29.697Z,0.50
2023-04-24T03:09:56.698Z,0.30
2023-04-24T03:12:24.708Z,0.20
2023-04-24T03:14:51.306Z,0.30
2023-04-24T03:17:17.907Z,0.20
2023-04-24T03:19:44.788Z,0.20
2023-04-24T03:22:12.164Z,0.30
2023-04-24T03:24:38.748Z,0.22
2023-04-24T03:27:05.552Z,0.30
2023-04-24T03:29:32.244Z,0.10
2023-04-24T03:31:58.817Z,0.30
2023-04-24T03:34:25.854Z,0.40
2023-04-24T03:36:53.679Z,0.20
2023-04-24T03:39:20.619Z,0.40
2023-04-24T03:41:47.188Z,0.20
2023-04-24T03:44:13.723Z,0.55
2023-04-24T03:46:40.347Z,0.20
2023-04-24T03:49:07.052Z,0.30
2023-04-24T03:51:33.590Z,0.30
2023-04-24T03:54:00.175Z,0.85
2023-04-24T03:56:26.752Z,0.20
2023-04-24T03:58:53.363Z,0.25
2023-04-24T04:01:21.532Z,0.30
2023-04-24T04:03:48.608Z,0.17
2023-04-24T04:06:15.550Z,0.10
2023-04-24T04:08:42.117Z,0.50
2023-04-24T04:11:08.732Z,0.40
2023-04-24T04:13:35.384Z,0.30
2023-04-24T04:16:01.975Z,0.22
2023-04-24T04:18:28.565Z,0.38
2023-04-24T04:20:55.132Z,0.20
2023-04-24T04:23:21.683Z,0.20
2023-04-24T04:25:48.223Z,0.20
2023-04-24T04:28:14.787Z,0.30
2023-04-24T04:30:42.174Z,0.40
2023-04-24T04:33:09.145Z,0.20
2023-04-24T04:35:35.939Z,0.40
2023-04-24T04:38:02.519Z,0.82
2023-04-24T04:40:29.478Z,0.40
2023-04-24T04:42:56.043Z,0.50
2023-04-24T04:45:22.657Z,0.40
2023-04-24T04:47:49.620Z,0.57
2023-04-24T04:50:17.694Z,0.50
2023-04-24T04:52:44.351Z,0.55
2023-04-24T04:55:10.929Z,0.40
2023-04-24T04:57:37.520Z,0.50
2023-04-24T05:00:05.162Z,0.30
2023-04-24T05:02:31.881Z,0.47
2023-04-24T05:04:58.633Z,0.70
2023-04-24T05:07:25.459Z,0.60
2023-04-24T05:09:53.240Z,0.85
2023-04-24T05:12:19.778Z,0.70
2023-04-24T05:14:46.286Z,1.00
2023-04-24T05:17:12.981Z,0.68
2023-04-24T05:19:39.631Z,0.40
2023-04-24T05:22:07.854Z,0.70
2023-04-24T05:24:35.449Z,0.70
2023-04-24T05:27:03.194Z,0.57
2023-04-24T05:29:31.790Z,0.85
2023-04-24T05:31:58.944Z,0.70
2023-04-24T05:34:25.657Z,0.82
2023-04-24T05:36:52.944Z,0.90
2023-04-24T05:39:20.587Z,0.90
2023-04-24T05:41:47.137Z,0.98
2023-04-24T05:44:13.681Z,1.20
2023-04-24T05:46:40.251Z,1.40
2023-04-24T05:49:06.830Z,1.13
2023-04-24T05:51:33.355Z,1.65
2023-04-24T05:54:00.006Z,2.10
2023-04-24T05:56:26.592Z,2.20
2023-04-24T05:58:53.152Z,1.60
2023-04-24T06:01:20.566Z,2.00
2023-04-24T06:03:47.317Z,1.80
2023-04-24T06:06:14.335Z,1.80
2023-04-24T06:08:40.957Z,1.30
2023-04-24T06:11:07.614Z,1.45
2023-04-24T06:13:34.203Z,1.25
2023-04-24T06:16:00.874Z,1.13
2023-04-24T06:18:27.450Z,1.20
2023-04-24T06:20:54.030Z,1.02
2023-04-24T06:23:20.616Z,0.70
2023-04-24T06:25:47.162Z,0.95
2023-04-24T06:28:13.923Z,0.80
2023-04-24T06:30:40.429Z,0.90
2023-04-24T06:33:19.201Z,0.73
2023-04-24T06:35:47.755Z,0.70
2023-04-24T06:38:14.467Z,0.70
2023-04-24T06:40:41.404Z,0.60
2023-04-24T06:43:08.047Z,1.25
2023-04-24T06:45:34.684Z,0.70
2023-04-24T06:48:01.271Z,0.57
2023-04-24T06:50:27.950Z,1.15
2023-04-24T06:52:54.484Z,0.95
2023-04-24T06:55:21.034Z,0.80
2023-04-24T06:57:47.738Z,0.75
2023-04-24T07:00:14.705Z,0.90
2023-04-24T07:02:41.537Z,0.75
2023-04-24T07:05:09.385Z,1.13
2023-04-24T07:07:38.563Z,0.95
2023-04-24T07:10:06.464Z,0.90
2023-04-24T07:12:33.809Z,1.00
2023-04-24T07:15:01.562Z,0.98
2023-04-24T07:17:28.201Z,1.08
2023-04-24T07:19:54.861Z,1.00
2023-04-24T07:22:21.731Z,1.00
2023-04-24T07:24:48.349Z,1.20
2023-04-24T07:27:15.932Z,1.20
2023-04-24T07:29:43.237Z,1.00
2023-04-24T07:32:10.219Z,1.02
2023-04-24T07:34:36.866Z,1.20
2023-04-24T07:37:04.152Z,1.20
2023-04-24T07:39:30.748Z,1.40
2023-04-24T07:41:57.507Z,1.38
2023-04-24T07:44:24.078Z,1.55
2023-04-24T07:46:51.000Z,1.88
2023-04-24T07:49:19.910Z,1.70
2023-04-24T07:51:46.785Z,1.00
2023-04-24T07:54:13.450Z,1.10
2023-04-24T07:56:40.568Z,1.60
2023-04-24T07:59:07.418Z,1.70
2023-04-24T08:01:33.979Z,1.80
2023-04-24T08:04:00.923Z,2.20
2023-04-24T08:06:31.186Z,2.00
2023-04-24T08:08:58.514Z,1.77
2023-04-24T08:11:25.957Z,1.65
2023-04-24T08:13:52.755Z,2.00
2023-04-24T08:16:19.571Z,2.20
2023-04-24T08:18:46.228Z,2.45
2023-04-24T08:21:17.844Z,2.10
2023-04-24T08:23:44.732Z,2.08
2023-04-24T08:26:12.078Z,2.65
2023-04-24T08:28:38.876Z,2.83
2023-04-24T08:31:05.660Z,3.38
2023-04-24T08:33:35.210Z,2.42
2023-04-24T08:36:06.061Z,2.53
2023-04-24T08:38:32.680Z,2.72
2023-04-24T08:41:01.238Z,3.08
2023-04-24T08:43:28.410Z,2.83
2023-04-24T08:45:57.918Z,3.05
2023-04-24T08:48:30.827Z,2.95
2023-04-24T08:50:59.905Z,2.83
2023-04-24T08:53:27.285Z,2.60
2023-04-24T08:55:56.295Z,3.22
2023-04-24T08:58:26.281Z,3.80
2023-04-24T09:00:55.289Z,3.30
2023-04-24T09:03:22.894Z,3.17
2023-04-24T09:05:51.337Z,2.85
2023-04-24T09:08:19.901Z,2.67
2023-04-24T09:10:49.082Z,3.17
2023-04-24T09:13:17.254Z,2.90
2023-04-24T09:15:43.858Z,2.95
2023-04-24T09:18:10.594Z,2.55
2023-04-24T09:21:03.051Z,2.50
2023-04-24T09:23:32.952Z,2.35
2023-04-24T09:26:01.206Z,2.23
2023-04-24T09:28:31.627Z,2.75
2023-04-24T09:31:18.913Z,2.65
2023-04-24T09:33:57.678Z,2.38
2023-04-24T09:36:37.760Z,2.50
2023-04-24T09:39:09.475Z,2.30
2023-04-24T09:41:36.426Z,2.10
2023-04-24T09:44:14.190Z,2.78
2023-04-24T09:46:42.716Z,2.55
2023-04-24T09:49:11.958Z,2.42
2023-04-24T09:51:39.240Z,2.60
2023-04-24T09:54:15.458Z,3.88
2023-04-24T09:56:46.649Z,3.28
2023-04-24T09:59:14.772Z,3.03
2023-04-24T10:01:45.830Z,2.10
2023-04-24T10:04:23.781Z,1.92
2023-04-24T10:06:52.089Z,2.33
2023-04-24T10:09:20.098Z,2.42
2023-04-24T10:11:49.168Z,2.45
2023-04-24T10:14:17.982Z,2.17
2023-04-24T10:16:47.715Z,2.55
2023-04-24T10:19:16.188Z,2.65
2023-04-24T10:21:47.185Z,4.78
2023-04-24T10:24:23.010Z,4.00
2023-04-24T10:26:49.763Z,3.50
2023-04-24T10:29:18.812Z,3.75
2023-04-24T10:31:48.788Z,3.25
2023-04-24T10:34:17.457Z,3.28
2023-04-24T10:36:49.164Z,2.13
2023-04-24T10:39:17.451Z,2.83
2023-04-24T10:41:44.331Z,2.05
2023-04-24T10:44:13.171Z,2.13
2023-04-24T10:46:43.413Z,2.17
2023-04-24T10:49:10.420Z,2.70
2023-04-24T10:51:51.711Z,2.63
2023-04-24T10:54:24.778Z,2.80
2023-04-24T10:56:52.783Z,2.50
2023-04-24T10:59:27.516Z,2.60
2023-04-24T11:01:56.165Z,2.90
2023-04-24T11:04:33.518Z,2.50
2023-04-24T11:07:00.797Z,2.35
2023-04-24T11:09:29.006Z,2.35
2023-04-24T11:12:11.651Z,1.92
2023-04-24T11:14:56.887Z,3.63
2023-04-24T11:17:43.197Z,2.17
2023-04-24T11:20:26.929Z,2.38
2023-04-24T11:22:56.266Z,2.70
2023-04-24T11:25:26.652Z,2.63
2023-04-24T11:28:04.853Z,2.37
2023-04-24T11:30:32.700Z,2.40
2023-04-24T11:33:05.039Z,2.33
2023-04-24T11:35:38.309Z,2.45
2023-04-24T11:40:35.772Z,2.85
2023-04-24T11:43:03.189Z,2.42
2023-04-24T11:45:31.177Z,2.50
2023-04-24T11:47:58.242Z,3.42
2023-04-24T11:50:27.030Z,2.83
2023-04-24T11:52:54.597Z,2.22
2023-04-24T11:55:21.268Z,2.40
2023-04-24T11:57:54.267Z,2.60
2023-04-24T12:00:23.338Z,2.90
2023-04-24T12:02:51.316Z,2.00
2023-04-24T12:05:25.104Z,1.80
2023-04-24T12:07:52.111Z,2.95
2023-04-24T12:10:26.311Z,2.28
2023-04-24T12:12:53.805Z,2.17
2023-04-24T12:15:21.912Z,2.25
2023-04-24T12:17:51.304Z,2.35
2023-04-24T12:20:18.128Z,2.10
2023-04-24T12:22:56.084Z,1.80
2023-04-24T12:25:35.623Z,2.10
2023-04-24T12:28:05.288Z,1.73
2023-04-24T12:30:39.594Z,1.80
2023-04-24T12:33:06.315Z,2.47
2023-04-24T12:35:34.495Z,1.95
2023-04-24T12:38:13.921Z,2.65
2023-04-24T12:40:42.497Z,2.10
2023-04-24T12:43:16.551Z,1.70
2023-04-24T12:45:43.145Z,1.92
2023-04-24T12:48:09.770Z,2.00
2023-04-24T12:50:36.371Z,2.05
2023-04-24T12:53:03.230Z,2.35
2023-04-24T12:55:29.943Z,1.95
2023-04-24T12:57:57.033Z,2.42
2023-04-24T13:00:23.624Z,1.80
2023-04-24T13:02:50.687Z,2.45
2023-04-24T13:05:17.573Z,2.30
2023-04-24T13:07:44.128Z,2.80
2023-04-24T13:10:11.312Z,2.28
2023-04-24T13:12:38.388Z,2.38
2023-04-24T13:15:05.567Z,2.65
2023-04-24T13:17:32.421Z,2.10
2023-04-24T13:19:59.019Z,1.95
2023-04-24T13:22:25.976Z,1.80
2023-04-24T13:24:52.558Z,2.20
2023-04-24T13:27:19.481Z,1.77
2023-04-24T13:29:46.715Z,2.05
2023-04-24T13:32:13.621Z,1.70
2023-04-24T13:34:40.464Z,1.92
2023-04-24T13:37:07.240Z,1.90
2023-04-24T13:39:34.104Z,2.35
2023-04-24T13:42:02.582Z,2.20
2023-04-24T13:44:30.623Z,2.47
2023-04-24T13:46:58.827Z,2.55
2023-04-24T13:49:26.292Z,2.47
2023-04-24T13:51:54.019Z,2.70
2023-04-24T13:54:20.668Z,2.20
2023-04-24T13:56:47.371Z,2.92
2023-04-24T13:59:14.394Z,2.17
2023-04-24T14:01:41.269Z,2.40
2023-04-24T14:04:08.118Z,2.92
2023-04-24T14:06:34.854Z,2.15
2023-04-24T14:09:01.481Z,2.00
2023-04-24T14:11:28.344Z,2.42
2023-04-24T14:13:57.240Z,2.60
2023-04-24T14:16:23.964Z,2.40
2023-04-24T14:18:51.090Z,2.28
2023-04-24T14:21:17.802Z,2.20
2023-04-24T14:23:45.165Z,2.75
2023-04-24T14:26:11.974Z,3.17
2023-04-24T14:28:38.575Z,2.28
2023-04-24T14:31:05.640Z,2.72
2023-04-24T14:33:32.506Z,2.88
2023-04-24T14:35:59.302Z,2.92
2023-04-24T14:38:26.117Z,2.15
2023-04-24T14:41:06.154Z,2.50
2023-04-24T14:43:33.763Z,2.03
2023-04-24T14:46:01.164Z,1.88
2023-04-24T14:48:27.734Z,2.70
2023-04-24T14:50:54.391Z,2.20
2023-04-24T14:53:21.671Z,2.30
2023-04-24T14:55:48.223Z,2.15
2023-04-24T14:58:14.770Z,2.30
2023-04-24T15:00:41.563Z,1.85
2023-04-24T15:03:08.686Z,2.40
2023-04-24T15:05:35.858Z,2.42
2023-04-24T15:08:02.680Z,2.10
2023-04-24T15:10:30.712Z,2.17
2023-04-24T15:12:57.364Z,1.88
2023-04-24T15:15:23.975Z,2.40
2023-04-24T15:17:50.750Z,2.50
2023-04-24T15:20:17.491Z,1.98
2023-04-24T15:22:44.079Z,1.83
2023-04-24T15:25:11.167Z,2.20
2023-04-24T15:27:45.241Z,1.90
2023-04-24T15:30:12.607Z,1.95
2023-04-24T15:32:39.824Z,2.13
2023-04-24T15:35:09.669Z,2.53
2023-04-24T15:37:37.644Z,2.08
2023-04-24T15:40:06.492Z,2.42
2023-04-24T15:42:33.589Z,2.20
2023-04-24T15:45:00.370Z,2.53
2023-04-24T15:47:27.213Z,2.33
2023-04-24T15:49:54.582Z,3.15
2023-04-24T15:52:21.524Z,2.25
2023-04-24T15:54:48.245Z,2.00
2023-04-24T15:57:15.101Z,2.30
2023-04-24T15:59:41.918Z,1.80
2023-04-24T16:02:12.580Z,2.17
2023-04-24T16:04:39.394Z,2.15
2023-04-24T16:07:06.212Z,1.77
2023-04-24T16:09:32.748Z,1.92
2023-04-24T16:11:59.363Z,2.17
2023-04-24T16:14:26.971Z,2.92
2023-04-24T16:16:55.326Z,1.80
2023-04-24T16:19:22.038Z,2.03
2023-04-24T16:21:48.619Z,2.13
2023-04-24T16:24:15.177Z,2.00
2023-04-24T16:26:41.877Z,2.10
2023-04-24T16:29:08.452Z,1.90
2023-04-24T16:31:34.992Z,2.00
2023-04-24T16:34:01.557Z,1.83
2023-04-24T16:36:28.633Z,1.90
2023-04-24T16:38:55.302Z,1.90
2023-04-24T16:41:21.888Z,2.13
2023-04-24T16:43:48.439Z,2.42
2023-04-24T16:46:15.218Z,2.08
2023-04-24T16:48:41.780Z,2.20
2023-04-24T16:51:08.292Z,2.10
2023-04-24T16:53:34.847Z,2.60
2023-04-24T16:56:01.490Z,2.50
2023-04-24T16:58:28.027Z,2.80
2023-04-24T17:00:54.738Z,2.90
2023-04-24T17:03:21.730Z,2.78
2023-04-24T17:05:48.916Z,2.70
2023-04-24T17:08:16.187Z,3.35
2023-04-24T17:10:42.847Z,3.95
2023-04-24T17:13:09.622Z,2.33
2023-04-24T17:15:36.334Z,2.58
2023-04-24T17:18:03.054Z,2.72
2023-04-24T17:20:30.226Z,3.20
2023-04-24T17:22:57.198Z,2.67
2023-04-24T17:25:23.853Z,3.33
2023-04-24T17:27:50.644Z,3.72
2023-04-24T17:30:17.757Z,3.47
2023-04-24T17:32:45.760Z,3.20
2023-04-24T17:35:12.412Z,2.95
2023-04-24T17:37:39.166Z,3.10
2023-04-24T17:40:06.937Z,3.38
2023-04-24T17:42:33.480Z,3.58
2023-04-24T17:45:00.276Z,3.30
2023-04-24T17:47:27.303Z,3.75
2023-04-24T17:49:53.972Z,2.92
2023-04-24T17:52:20.565Z,3.53
2023-04-24T17:54:49.512Z,3.05
2023-04-24T17:57:16.343Z,3.22
2023-04-24T17:59:43.096Z,4.68
2023-04-24T18:02:09.791Z,4.60
2023-04-24T18:04:38.986Z,3.38
2023-04-24T18:07:05.917Z,2.95
2023-04-24T18:09:32.574Z,3.45
2023-04-24T18:11:59.320Z,3.90
2023-04-24T18:14:28.193Z,2.78
2023-04-24T18:16:55.978Z,3.67
2023-04-24T18:19:24.307Z,3.20
2023-04-24T18:21:50.871Z,3.17
2023-04-24T18:24:17.533Z,3.00
2023-04-24T18:26:44.085Z,4.57
2023-04-24T18:29:10.633Z,5.85
2023-04-24T18:31:37.384Z,3.83
2023-04-24T18:34:04.284Z,3.35
2023-04-24T18:36:30.982Z,3.38
2023-04-24T18:38:57.560Z,3.92
2023-04-24T18:41:24.110Z,3.17
2023-04-24T18:43:51.871Z,3.25
2023-04-24T18:46:18.543Z,3.00
2023-04-24T18:48:45.123Z,3.45
2023-04-24T18:51:11.746Z,3.60
2023-04-24T18:53:40.155Z,3.15
2023-04-24T18:56:06.899Z,3.38
2023-04-24T18:58:33.438Z,3.80
2023-04-24T19:01:00.402Z,3.17
2023-04-24T19:03:28.018Z,3.03
2023-04-24T19:05:54.724Z,3.45
2023-04-24T19:08:21.334Z,3.80
2023-04-24T19:10:47.889Z,3.40
2023-04-24T19:13:14.524Z,3.20
2023-04-24T19:15:41.084Z,3.45
2023-04-24T19:18:07.744Z,3.30
2023-04-24T19:20:34.373Z,3.47
2023-04-24T19:23:01.568Z,4.22
2023-04-24T19:25:28.203Z,3.97
2023-04-24T19:27:55.084Z,3.20
2023-04-24T19:30:21.868Z,9.63
2023-04-24T19:32:48.784Z,7.43
2023-04-24T19:35:15.435Z,10.88
2023-04-24T19:37:42.042Z,4.40
2023-04-24T19:40:09.004Z,3.58
2023-04-24T19:42:43.291Z,3.38
2023-04-24T19:45:12.194Z,4.03
2023-04-24T19:47:39.344Z,2.90
2023-04-24T19:50:07.047Z,3.95
2023-04-24T19:52:34.089Z,3.50
2023-04-24T19:55:00.750Z,3.90
2023-04-24T19:57:27.444Z,3.70
2023-04-24T19:59:54.015Z,3.63
2023-04-24T20:02:20.645Z,3.50
2023-04-24T20:04:47.504Z,3.67
2023-04-24T20:07:14.227Z,3.63
2023-04-24T20:09:40.732Z,4.78
2023-04-24T20:12:07.375Z,4.10
2023-04-24T20:14:33.932Z,3.67
2023-04-24T20:17:00.613Z,4.15
2023-04-24T20:19:27.259Z,4.32
2023-04-24T20:21:54.233Z,4.30
2023-04-24T20:24:20.982Z,4.55
2023-04-24T20:26:47.602Z,4.07
2023-04-24T20:29:14.207Z,4.85
2023-04-24T20:31:41.670Z,5.22
2023-04-24T20:34:08.387Z,5.93
2023-04-24T20:36:35.047Z,5.20
2023-04-24T20:39:02.155Z,6.80
2023-04-24T20:41:30.191Z,6.53
2023-04-24T20:43:56.827Z,5.68
2023-04-24T20:46:23.467Z,5.82
2023-04-24T20:48:50.756Z,4.97
2023-04-24T20:51:19.394Z,5.75
2023-04-24T20:53:46.453Z,5.45
2023-04-24T20:56:13.004Z,4.70
2023-04-24T20:58:39.812Z,5.43
2023-04-24T21:01:06.802Z,5.00
2023-04-24T21:03:33.649Z,5.70
2023-04-24T21:06:00.439Z,6.28
2023-04-24T21:08:27.023Z,4.57
2023-04-24T21:10:53.766Z,5.00
2023-04-24T21:13:20.427Z,5.07
2023-04-24T21:15:47.082Z,5.63
2023-04-24T21:18:13.879Z,4.63
2023-04-24T21:20:40.589Z,4.85
2023-04-24T21:23:07.198Z,5.13
2023-04-24T21:25:35.616Z,4.65
2023-04-24T21:28:03.060Z,4.53
2023-04-24T21:30:30.319Z,4.10
2023-04-24T21:32:57.330Z,4.82
2023-04-24T21:35:23.905Z,4.28
2023-04-24T21:37:50.582Z,4.57
2023-04-24T21:40:17.297Z,4.85
2023-04-24T21:42:43.945Z,4.38
2023-04-24T21:45:11.080Z,4.53
2023-04-24T21:47:37.833Z,4.85
2023-04-24T21:50:05.591Z,4.63
2023-04-24T21:52:32.120Z,4.35
2023-04-24T21:54:58.656Z,4.93
2023-04-24T21:57:25.387Z,4.88
2023-04-24T21:59:52.539Z,4.75
2023-04-24T22:02:19.224Z,5.63
2023-04-24T22:04:46.010Z,4.28
2023-04-24T22:07:12.771Z,4.65
2023-04-24T22:09:39.310Z,4.45
2023-04-24T22:12:06.490Z,4.85
2023-04-24T22:14:33.290Z,5.00
2023-04-24T22:16:59.835Z,4.68
2023-04-24T22:19:28.082Z,4.35
2023-04-24T22:21:54.635Z,4.18
2023-04-24T22:24:21.313Z,5.15
2023-04-24T22:26:47.944Z,3.95
2023-04-24T22:29:14.625Z,3.97
2023-04-24T22:31:42.031Z,4.00
2023-04-24T22:34:08.869Z,4.53
2023-04-24T22:36:35.682Z,3.83
2023-04-24T22:39:02.426Z,4.13
2023-04-24T22:41:28.975Z,4.35
2023-04-24T22:43:55.756Z,4.53
2023-04-24T22:46:22.537Z,4.10
2023-04-24T22:48:49.234Z,4.20
2023-04-24T22:51:17.990Z,4.80
2023-04-24T22:53:44.852Z,3.70
2023-04-24T22:56:11.715Z,4.30
2023-04-24T22:58:38.595Z,4.60
2023-04-24T23:01:05.310Z,5.05
2023-04-24T23:03:32.990Z,5.55
2023-04-24T23:05:59.793Z,6.20
2023-04-24T23:08:26.395Z,5.10
2023-04-24T23:10:53.016Z,4.80
2023-04-24T23:13:19.919Z,4.05
2023-04-24T23:15:46.489Z,4.70
2023-04-24T23:18:13.038Z,4.43
2023-04-24T23:20:39.930Z,4.20
2023-04-24T23:23:06.519Z,4.25
2023-04-24T23:25:33.120Z,4.55
2023-04-24T23:27:59.806Z,4.50
2023-04-24T23:30:26.468Z,3.95
2023-04-24T23:32:53.107Z,3.42
2023-04-24T23:35:19.810Z,3.70
2023-04-24T23:37:46.402Z,4.97
2023-04-24T23:40:13.607Z,4.32
2023-04-24T23:42:40.347Z,3.80
2023-04-24T23:45:07.852Z,4.03
2023-04-24T23:47:34.569Z,3.75
2023-04-24T23:50:01.329Z,3.78
2023-04-24T23:52:27.976Z,3.78
2023-04-24T23:54:54.548Z,3.63
2023-04-24T23:57:21.648Z,3.15
2023-04-24T23:59:48.334Z,3.55
